sensor_id;sensor_type;location;lat;lon;timestamp;pressure;altitude;pressure_sealevel;temperature;humidity
68366;BME280;55283;51.466;5.478;2023-02-13T00:01:35;103542.22;;;19.47;42.41
68366;BME280;55283;51.466;5.478;2023-02-13T00:04:01;103539.75;;;19.45;42.34
68366;BME280;55283;51.466;5.478;2023-02-13T00:06:26;103543.44;;;19.49;42.24
68366;BME280;55283;51.466;5.478;2023-02-13T00:08:52;103540.63;;;19.49;42.39
68366;BME280;55283;51.466;5.478;2023-02-13T00:11:17;103538.22;;;19.48;42.14
68366;BME280;55283;51.466;5.478;2023-02-13T00:13:44;103539.41;;;19.47;41.92
68366;BME280;55283;51.466;5.478;2023-02-13T00:16:10;103544.63;;;19.48;42.06
68366;BME280;55283;51.466;5.478;2023-02-13T00:18:36;103537.03;;;19.49;42.04
68366;BME280;55283;51.466;5.478;2023-02-13T00:21:05;103528.63;;;19.49;41.91
68366;BME280;55283;51.466;5.478;2023-02-13T00:23:32;103525.03;;;19.48;41.90
68366;BME280;55283;51.466;5.478;2023-02-13T00:25:59;103525.78;;;19.45;41.81
68366;BME280;55283;51.466;5.478;2023-02-13T00:28:25;103526.66;;;19.49;41.93
68366;BME280;55283;51.466;5.478;2023-02-13T00:30:51;103536.22;;;19.48;41.86
68366;BME280;55283;51.466;5.478;2023-02-13T00:33:16;103524.16;;;19.44;41.87
68366;BME280;55283;51.466;5.478;2023-02-13T00:35:42;103535.78;;;19.46;41.79
68366;BME280;55283;51.466;5.478;2023-02-13T00:38:07;103529.44;;;19.49;41.63
68366;BME280;55283;51.466;5.478;2023-02-13T00:40:33;103525.50;;;19.50;41.71
68366;BME280;55283;51.466;5.478;2023-02-13T00:42:58;103521.78;;;19.46;41.46
68366;BME280;55283;51.466;5.478;2023-02-13T00:45:24;103531.88;;;19.51;41.85
68366;BME280;55283;51.466;5.478;2023-02-13T00:47:49;103520.25;;;19.49;41.65
68366;BME280;55283;51.466;5.478;2023-02-13T00:50:14;103526.22;;;19.47;41.80
68366;BME280;55283;51.466;5.478;2023-02-13T00:52:40;103525.03;;;19.48;41.73
68366;BME280;55283;51.466;5.478;2023-02-13T00:55:05;103518.56;;;19.44;41.88
68366;BME280;55283;51.466;5.478;2023-02-13T00:57:31;103521.78;;;19.46;41.77
68366;BME280;55283;51.466;5.478;2023-02-13T00:59:57;103518.63;;;19.48;41.56
68366;BME280;55283;51.466;5.478;2023-02-13T01:02:23;103519.44;;;19.48;41.91
68366;BME280;55283;51.466;5.478;2023-02-13T01:04:48;103524.22;;;19.48;41.71
68366;BME280;55283;51.466;5.478;2023-02-13T01:07:14;103523.44;;;19.47;41.47
68366;BME280;55283;51.466;5.478;2023-02-13T01:09:39;103524.16;;;19.44;41.45
68366;BME280;55283;51.466;5.478;2023-02-13T01:12:05;103528.97;;;19.43;41.41
68366;BME280;55283;51.466;5.478;2023-02-13T01:14:30;103519.66;;;19.39;41.56
68366;BME280;55283;51.466;5.478;2023-02-13T01:16:56;103523.38;;;19.43;41.39
68366;BME280;55283;51.466;5.478;2023-02-13T01:19:21;103524.16;;;19.44;41.58
68366;BME280;55283;51.466;5.478;2023-02-13T01:21:46;103525.34;;;19.43;41.48
68366;BME280;55283;51.466;5.478;2023-02-13T01:24:12;103517.78;;;19.43;41.65
68366;BME280;55283;51.466;5.478;2023-02-13T01:26:37;103515.78;;;19.44;41.55
68366;BME280;55283;51.466;5.478;2023-02-13T01:29:03;103521.78;;;19.46;41.65
68366;BME280;55283;51.466;5.478;2023-02-13T01:31:28;103516.53;;;19.41;41.58
68366;BME280;55283;51.466;5.478;2023-02-13T01:33:58;103520.94;;;19.42;41.34
68366;BME280;55283;51.466;5.478;2023-02-13T01:36:24;103515.69;;;19.40;41.53
68366;BME280;55283;51.466;5.478;2023-02-13T01:38:55;103509.22;;;19.36;41.48
68366;BME280;55283;51.466;5.478;2023-02-13T01:41:21;103518.13;;;19.42;41.41
68366;BME280;55283;51.466;5.478;2023-02-13T01:43:52;103512.03;;;19.36;41.46
68366;BME280;55283;51.466;5.478;2023-02-13T01:46:26;103512.53;;;19.42;41.26
68366;BME280;55283;51.466;5.478;2023-02-13T01:48:55;103509.38;;;19.43;41.19
68366;BME280;55283;51.466;5.478;2023-02-13T01:51:30;103503.28;;;19.38;41.38
68366;BME280;55283;51.466;5.478;2023-02-13T01:54:01;103503.69;;;19.40;41.15
68366;BME280;55283;51.466;5.478;2023-02-13T01:58:56;103488.47;;;19.37;41.10
68366;BME280;55283;51.466;5.478;2023-02-13T02:01:24;103499.59;;;19.34;41.11
68366;BME280;55283;51.466;5.478;2023-02-13T02:04:09;103504.03;;;19.35;41.20
68366;BME280;55283;51.466;5.478;2023-02-13T02:06:42;103496.72;;;19.30;41.07
68366;BME280;55283;51.466;5.478;2023-02-13T02:09:15;103498.84;;;19.37;41.15
68366;BME280;55283;51.466;5.478;2023-02-13T02:14:29;103502.84;;;19.36;40.90
68366;BME280;55283;51.466;5.478;2023-02-13T02:16:55;103505.25;;;19.37;41.17
68366;BME280;55283;51.466;5.478;2023-02-13T02:20:14;103497.69;;;19.38;41.03
68366;BME280;55283;51.466;5.478;2023-02-13T02:25:22;103490.91;;;19.39;40.97
68366;BME280;55283;51.466;5.478;2023-02-13T02:33:46;103485.25;;;19.35;40.98
68366;BME280;55283;51.466;5.478;2023-02-13T02:41:51;103488.63;;;19.44;40.99
68366;BME280;55283;51.466;5.478;2023-02-13T02:44:31;103495.81;;;19.45;40.93
68366;BME280;55283;51.466;5.478;2023-02-13T02:55:34;103483.47;;;19.47;40.83
68366;BME280;55283;51.466;5.478;2023-02-13T03:00:56;103478.66;;;19.47;40.76
68366;BME280;55283;51.466;5.478;2023-02-13T03:03:42;103474.13;;;19.39;40.91
68366;BME280;55283;51.466;5.478;2023-02-13T03:06:43;103477.78;;;19.43;40.45
68366;BME280;55283;51.466;5.478;2023-02-13T03:09:14;103487.06;;;19.47;40.77
68366;BME280;55283;51.466;5.478;2023-02-13T03:11:59;103480.22;;;19.44;40.74
68366;BME280;55283;51.466;5.478;2023-02-13T03:14:44;103479.84;;;19.46;40.58
68366;BME280;55283;51.466;5.478;2023-02-13T03:17:13;103483.88;;;19.49;40.44
68366;BME280;55283;51.466;5.478;2023-02-13T03:23:46;103474.97;;;19.43;40.60
68366;BME280;55283;51.466;5.478;2023-02-13T03:26:29;103473.44;;;19.45;40.59
68366;BME280;55283;51.466;5.478;2023-02-13T03:32:24;103479.78;;;19.42;40.41
68366;BME280;55283;51.466;5.478;2023-02-13T03:35:00;103470.88;;;19.37;40.55
68366;BME280;55283;51.466;5.478;2023-02-13T03:37:49;103459.56;;;19.30;40.87
68366;BME280;55283;51.466;5.478;2023-02-13T03:40:43;103483.81;;;19.45;40.44
68366;BME280;55283;51.466;5.478;2023-02-13T03:43:37;103474.47;;;19.37;40.61
68366;BME280;55283;51.466;5.478;2023-02-13T03:46:06;103487.81;;;19.44;40.44
68366;BME280;55283;51.466;5.478;2023-02-13T03:48:35;103484.56;;;19.42;40.59
68366;BME280;55283;51.466;5.478;2023-02-13T03:51:28;103490.97;;;19.42;40.51
68366;BME280;55283;51.466;5.478;2023-02-13T03:54:01;103494.56;;;19.43;40.60
68366;BME280;55283;51.466;5.478;2023-02-13T03:56:31;103487.72;;;19.40;40.69
68366;BME280;55283;51.466;5.478;2023-02-13T03:59:28;103476.84;;;19.35;40.63
68366;BME280;55283;51.466;5.478;2023-02-13T04:02:16;103494.19;;;19.44;40.51
68366;BME280;55283;51.466;5.478;2023-02-13T04:05:01;103499.00;;;19.44;40.58
68366;BME280;55283;51.466;5.478;2023-02-13T04:07:28;103502.94;;;19.43;40.34
68366;BME280;55283;51.466;5.478;2023-02-13T04:10:14;103498.44;;;19.35;40.49
68366;BME280;55283;51.466;5.478;2023-02-13T04:15:27;103506.13;;;19.41;40.46
68366;BME280;55283;51.466;5.478;2023-02-13T04:18:10;103502.88;;;19.39;40.47
68366;BME280;55283;51.466;5.478;2023-02-13T04:20:38;103498.44;;;19.35;40.56
68366;BME280;55283;51.466;5.478;2023-02-13T04:23:08;103485.09;;;19.28;40.50
68366;BME280;55283;51.466;5.478;2023-02-13T04:25:39;103488.34;;;19.30;40.68
68366;BME280;55283;51.466;5.478;2023-02-13T04:28:06;103484.44;;;19.35;40.45
68366;BME280;55283;51.466;5.478;2023-02-13T04:30:31;103473.16;;;19.31;40.26
68366;BME280;55283;51.466;5.478;2023-02-13T04:32:57;103490.84;;;19.35;40.14
68366;BME280;55283;51.466;5.478;2023-02-13T04:35:22;103486.09;;;19.39;40.39
68366;BME280;55283;51.466;5.478;2023-02-13T04:37:48;103491.75;;;19.43;40.30
68366;BME280;55283;51.466;5.478;2023-02-13T04:40:13;103478.97;;;19.42;40.02
68366;BME280;55283;51.466;5.478;2023-02-13T04:42:39;103485.44;;;19.46;40.05
68366;BME280;55283;51.466;5.478;2023-02-13T04:45:04;103486.25;;;19.47;40.20
68366;BME280;55283;51.466;5.478;2023-02-13T04:47:30;103478.22;;;19.45;40.20
68366;BME280;55283;51.466;5.478;2023-02-13T04:49:55;103479.03;;;19.45;40.15
68366;BME280;55283;51.466;5.478;2023-02-13T04:52:21;103478.22;;;19.45;40.00
68366;BME280;55283;51.466;5.478;2023-02-13T04:54:46;103474.19;;;19.42;40.19
68366;BME280;55283;51.466;5.478;2023-02-13T04:57:12;103480.66;;;19.47;40.23
68366;BME280;55283;51.466;5.478;2023-02-13T04:59:38;103479.84;;;19.46;40.00
68366;BME280;55283;51.466;5.478;2023-02-13T05:02:03;103454.09;;;19.37;40.03
68366;BME280;55283;51.466;5.478;2023-02-13T05:04:29;103472.19;;;19.43;39.97
68366;BME280;55283;51.466;5.478;2023-02-13T05:06:54;103469.38;;;19.43;40.00
68366;BME280;55283;51.466;5.478;2023-02-13T05:09:20;103477.41;;;19.44;39.96
68366;BME280;55283;51.466;5.478;2023-02-13T05:11:45;103474.19;;;19.42;39.86
68366;BME280;55283;51.466;5.478;2023-02-13T05:14:11;103471.38;;;19.42;40.02
68366;BME280;55283;51.466;5.478;2023-02-13T05:16:37;103465.34;;;19.40;39.88
68366;BME280;55283;51.466;5.478;2023-02-13T05:19:02;103476.53;;;19.40;39.73
68366;BME280;55283;51.466;5.478;2023-02-13T05:21:28;103472.94;;;19.40;39.90
68366;BME280;55283;51.466;5.478;2023-02-13T05:24:11;103471.75;;;19.41;39.83
68366;BME280;55283;51.466;5.478;2023-02-13T05:26:37;103470.13;;;19.40;39.88
68366;BME280;55283;51.466;5.478;2023-02-13T05:29:02;103467.72;;;19.38;39.55
68366;BME280;55283;51.466;5.478;2023-02-13T05:31:44;103469.72;;;19.38;39.80
68366;BME280;55283;51.466;5.478;2023-02-13T05:34:09;103461.16;;;19.31;39.65
68366;BME280;55283;51.466;5.478;2023-02-13T05:36:35;103471.31;;;19.39;39.86
68366;BME280;55283;51.466;5.478;2023-02-13T05:39:00;103468.53;;;19.39;39.92
68366;BME280;55283;51.466;5.478;2023-02-13T05:41:26;103464.78;;;19.31;39.73
68366;BME280;55283;51.466;5.478;2023-02-13T05:43:51;103475.31;;;19.38;39.75
68366;BME280;55283;51.466;5.478;2023-02-13T05:46:17;103480.50;;;19.39;39.58
68366;BME280;55283;51.466;5.478;2023-02-13T05:48:42;103480.50;;;19.39;39.67
68366;BME280;55283;51.466;5.478;2023-02-13T05:51:08;103471.63;;;19.34;39.71
68366;BME280;55283;51.466;5.478;2023-02-13T05:53:33;103460.31;;;19.27;39.61
68366;BME280;55283;51.466;5.478;2023-02-13T05:56:00;103480.91;;;19.38;39.67
68366;BME280;55283;51.466;5.478;2023-02-13T05:58:26;103477.28;;;19.37;39.53
68366;BME280;55283;51.466;5.478;2023-02-13T06:00:55;103475.72;;;19.40;39.65
68366;BME280;55283;51.466;5.478;2023-02-13T06:03:23;103477.72;;;19.39;39.55
68366;BME280;55283;51.466;5.478;2023-02-13T06:05:48;103474.84;;;19.36;39.62
68366;BME280;55283;51.466;5.478;2023-02-13T06:08:14;103462.78;;;19.32;39.51
68366;BME280;55283;51.466;5.478;2023-02-13T06:10:39;103476.53;;;19.40;39.60
68366;BME280;55283;51.466;5.478;2023-02-13T06:13:05;103472.50;;;19.38;39.40
68366;BME280;55283;51.466;5.478;2023-02-13T06:15:30;103464.88;;;19.35;39.50
68366;BME280;55283;51.466;5.478;2023-02-13T06:17:56;103466.16;;;19.41;39.63
68366;BME280;55283;51.466;5.478;2023-02-13T06:20:22;103468.59;;;19.42;39.46
68366;BME280;55283;51.466;5.478;2023-02-13T06:22:51;103471.81;;;19.44;39.18
68366;BME280;55283;51.466;5.478;2023-02-13T06:25:18;103467.03;;;19.45;39.51
68366;BME280;55283;51.466;5.478;2023-02-13T06:27:43;103467.47;;;19.47;39.38
68366;BME280;55283;51.466;5.478;2023-02-13T06:30:09;103475.06;;;19.47;39.44
68366;BME280;55283;51.466;5.478;2023-02-13T06:32:35;103479.91;;;19.50;39.75
68366;BME280;55283;51.466;5.478;2023-02-13T06:35:00;103485.94;;;19.52;39.64
68366;BME280;55283;51.466;5.478;2023-02-13T06:37:26;103476.72;;;19.51;39.75
68366;BME280;55283;51.466;5.478;2023-02-13T06:39:51;103467.84;;;19.45;39.98
68366;BME280;55283;51.466;5.478;2023-02-13T06:42:17;103478.66;;;19.47;39.91
68366;BME280;55283;51.466;5.478;2023-02-13T06:44:43;103481.03;;;19.45;40.00
68366;BME280;55283;51.466;5.478;2023-02-13T06:47:09;103474.56;;;19.41;40.06
68366;BME280;55283;51.466;5.478;2023-02-13T06:49:34;103478.09;;;19.38;40.30
68366;BME280;55283;51.466;5.478;2023-02-13T06:52:00;103476.09;;;19.38;40.36
68366;BME280;55283;51.466;5.478;2023-02-13T06:54:25;103479.19;;;19.33;40.51
68366;BME280;55283;51.466;5.478;2023-02-13T06:56:51;103477.03;;;19.46;41.33
68366;BME280;55283;51.466;5.478;2023-02-13T06:59:16;103485.66;;;19.57;41.12
68366;BME280;55283;51.466;5.478;2023-02-13T07:01:41;103493.69;;;19.58;41.77
68366;BME280;55283;51.466;5.478;2023-02-13T07:04:07;103490.50;;;19.60;41.47
68366;BME280;55283;51.466;5.478;2023-02-13T07:06:32;103485.72;;;19.60;42.46
68366;BME280;55283;51.466;5.478;2023-02-13T07:09:00;103488.22;;;19.65;41.84
68366;BME280;55283;51.466;5.478;2023-02-13T07:11:25;103496.16;;;19.63;41.67
68366;BME280;55283;51.466;5.478;2023-02-13T07:13:51;103493.97;;;19.53;41.27
68366;BME280;55283;51.466;5.478;2023-02-13T07:16:16;103485.94;;;19.52;41.18
68366;BME280;55283;51.466;5.478;2023-02-13T07:18:42;103498.38;;;19.54;41.63
68366;BME280;55283;51.466;5.478;2023-02-13T07:21:07;103495.22;;;19.56;41.56
68366;BME280;55283;51.466;5.478;2023-02-13T07:23:33;103508.31;;;19.52;41.11
68366;BME280;55283;51.466;5.478;2023-02-13T07:25:59;103493.06;;;19.26;37.74
68366;BME280;55283;51.466;5.478;2023-02-13T07:28:25;103493.72;;;19.00;37.16
68366;BME280;55283;51.466;5.478;2023-02-13T07:30:51;103503.69;;;18.82;35.84
68366;BME280;55283;51.466;5.478;2023-02-13T07:33:16;103488.44;;;18.60;35.14
68366;BME280;55283;51.466;5.478;2023-02-13T07:35:50;103492.22;;;18.51;34.67
68366;BME280;55283;51.466;5.478;2023-02-13T07:38:16;103509.53;;;18.41;35.63
68366;BME280;55283;51.466;5.478;2023-02-13T07:40:42;103498.81;;;18.59;36.50
68366;BME280;55283;51.466;5.478;2023-02-13T07:43:08;103503.13;;;18.57;37.08
68366;BME280;55283;51.466;5.478;2023-02-13T07:45:33;103505.72;;;18.65;37.88
68366;BME280;55283;51.466;5.478;2023-02-13T07:47:59;103507.16;;;18.75;38.32
68366;BME280;55283;51.466;5.478;2023-02-13T07:50:25;103495.31;;;18.82;38.13
68366;BME280;55283;51.466;5.478;2023-02-13T07:52:55;103498.28;;;18.89;38.40
68366;BME280;55283;51.466;5.478;2023-02-13T07:55:21;103501.38;;;19.03;38.69
68366;BME280;55283;51.466;5.478;2023-02-13T07:57:47;103493.06;;;19.07;38.65
68366;BME280;55283;51.466;5.478;2023-02-13T08:00:15;103495.91;;;19.10;38.84
68366;BME280;55283;51.466;5.478;2023-02-13T08:02:40;103503.06;;;19.27;39.06
68366;BME280;55283;51.466;5.478;2023-02-13T08:05:06;103517.09;;;19.31;39.12
68366;BME280;55283;51.466;5.478;2023-02-13T08:07:32;103515.91;;;19.32;39.12
68366;BME280;55283;51.466;5.478;2023-02-13T08:09:58;103511.50;;;19.31;39.33
68366;BME280;55283;51.466;5.478;2023-02-13T08:12:42;103516.38;;;19.34;39.70
68366;BME280;55283;51.466;5.478;2023-02-13T08:15:12;103517.69;;;19.40;39.50
68366;BME280;55283;51.466;5.478;2023-02-13T08:17:38;103522.47;;;19.39;39.28
68366;BME280;55283;51.466;5.478;2023-02-13T08:20:05;103503.00;;;19.23;39.31
68366;BME280;55283;51.466;5.478;2023-02-13T08:22:37;103514.75;;;19.33;39.69
68366;BME280;55283;51.466;5.478;2023-02-13T08:25:04;103526.53;;;19.42;40.06
68366;BME280;55283;51.466;5.478;2023-02-13T08:27:30;103534.16;;;19.45;39.75
68366;BME280;55283;51.466;5.478;2023-02-13T08:29:56;103541.81;;;19.48;40.10
68366;BME280;55283;51.466;5.478;2023-02-13T08:32:22;103545.38;;;19.45;38.95
68366;BME280;55283;51.466;5.478;2023-02-13T08:34:48;103526.81;;;19.37;38.77
68366;BME280;55283;51.466;5.478;2023-02-13T08:37:13;103544.91;;;19.43;38.91
68366;BME280;55283;51.466;5.478;2023-02-13T08:39:39;103545.06;;;19.50;39.61
68366;BME280;55283;51.466;5.478;2023-02-13T08:42:05;103552.72;;;19.53;39.72
68366;BME280;55283;51.466;5.478;2023-02-13T08:44:30;103535.78;;;19.46;39.89
68366;BME280;55283;51.466;5.478;2023-02-13T08:46:56;103551.91;;;19.53;39.49
68366;BME280;55283;51.466;5.478;2023-02-13T08:49:21;103534.97;;;19.45;39.72
68366;BME280;55283;51.466;5.478;2023-02-13T08:51:51;103564.38;;;19.55;39.79
68366;BME280;55283;51.466;5.478;2023-02-13T08:54:16;103555.13;;;19.55;40.24
68366;BME280;55283;51.466;5.478;2023-02-13T08:56:41;103554.81;;;19.56;40.07
68366;BME280;55283;51.466;5.478;2023-02-13T08:59:07;103548.03;;;19.57;39.93
68366;BME280;55283;51.466;5.478;2023-02-13T09:01:33;103547.47;;;19.52;39.69
68366;BME280;55283;51.466;5.478;2023-02-13T09:03:58;103537.84;;;19.49;39.59
68366;BME280;55283;51.466;5.478;2023-02-13T09:06:23;103551.28;;;19.59;39.50
68366;BME280;55283;51.466;5.478;2023-02-13T09:08:51;103545.72;;;19.63;39.41
68366;BME280;55283;51.466;5.478;2023-02-13T09:11:16;103548.91;;;19.61;39.33
68366;BME280;55283;51.466;5.478;2023-02-13T09:13:42;103544.06;;;19.58;39.06
68366;BME280;55283;51.466;5.478;2023-02-13T09:16:08;103554.63;;;19.68;39.25
68366;BME280;55283;51.466;5.478;2023-02-13T09:18:34;103546.13;;;19.61;39.25
68366;BME280;55283;51.466;5.478;2023-02-13T09:21:05;103551.41;;;19.66;39.29
68366;BME280;55283;51.466;5.478;2023-02-13T09:23:33;103546.63;;;19.67;39.33
68366;BME280;55283;51.466;5.478;2023-02-13T09:25:59;103560.28;;;19.72;38.99
68366;BME280;55283;51.466;5.478;2023-02-13T09:28:25;103553.53;;;19.73;39.31
68366;BME280;55283;51.466;5.478;2023-02-13T09:30:51;103555.94;;;19.75;39.51
68366;BME280;55283;51.466;5.478;2023-02-13T09:33:16;103550.28;;;19.71;38.89
68366;BME280;55283;51.466;5.478;2023-02-13T09:35:42;103556.09;;;19.82;39.35
68366;BME280;55283;51.466;5.478;2023-02-13T09:38:10;103532.41;;;19.76;39.52
68366;BME280;55283;51.466;5.478;2023-02-13T09:43:26;103551.06;;;19.91;39.49
68366;BME280;55283;51.466;5.478;2023-02-13T09:45:56;103541.53;;;19.96;39.53
68366;BME280;55283;51.466;5.478;2023-02-13T09:48:31;103546.75;;;19.97;39.50
68366;BME280;55283;51.466;5.478;2023-02-13T09:50:59;103543.22;;;20.00;39.33
68366;BME280;55283;51.466;5.478;2023-02-13T09:53:26;103546.47;;;20.02;39.42
68366;BME280;55283;51.466;5.478;2023-02-13T10:01:57;103544.22;;;20.11;39.70
68366;BME280;55283;51.466;5.478;2023-02-13T10:04:33;103547.47;;;20.13;39.79
68366;BME280;55283;51.466;5.478;2023-02-13T10:10:37;103540.22;;;20.12;39.76
68366;BME280;55283;51.466;5.478;2023-02-13T10:18:21;103556.50;;;20.30;39.69
68366;BME280;55283;51.466;5.478;2023-02-13T10:20:53;103551.31;;;20.28;39.84
68366;BME280;55283;51.466;5.478;2023-02-13T10:23:44;103547.63;;;20.24;39.01
68366;BME280;55283;51.466;5.478;2023-02-13T10:28:56;103545.25;;;20.26;39.21
68366;BME280;55283;51.466;5.478;2023-02-13T10:32:01;103547.69;;;20.28;39.44
68366;BME280;55283;51.466;5.478;2023-02-13T10:34:33;103535.59;;;20.24;39.59
68366;BME280;55283;51.466;5.478;2023-02-13T10:37:01;103539.28;;;20.28;39.39
68366;BME280;55283;51.466;5.478;2023-02-13T10:39:29;103531.16;;;20.19;39.36
68366;BME280;55283;51.466;5.478;2023-02-13T10:51:30;103534.25;;;20.37;38.63
68366;BME280;55283;51.466;5.478;2023-02-13T10:54:18;103527.09;;;20.40;39.23
68366;BME280;55283;51.466;5.478;2023-02-13T10:57:04;103523.91;;;20.41;39.29
68366;BME280;55283;51.466;5.478;2023-02-13T11:02:27;103529.19;;;20.46;39.36
68366;BME280;55283;51.466;5.478;2023-02-13T11:04:59;103523.19;;;20.48;39.35
68366;BME280;55283;51.466;5.478;2023-02-13T11:07:25;103518.00;;;20.46;39.09
68366;BME280;55283;51.466;5.478;2023-02-13T11:09:57;103523.28;;;20.51;39.24
68366;BME280;55283;51.466;5.478;2023-02-13T11:12:27;103522.94;;;20.56;39.30
68366;BME280;55283;51.466;5.478;2023-02-13T11:14:59;103510.47;;;20.54;39.43
68366;BME280;55283;51.466;5.478;2023-02-13T11:17:27;103508.56;;;20.58;39.92
68366;BME280;55283;51.466;5.478;2023-02-13T11:20:03;103507.41;;;20.63;40.67
68366;BME280;55283;51.466;5.478;2023-02-13T11:22:40;103509.88;;;20.68;40.17
68366;BME280;55283;51.466;5.478;2023-02-13T11:25:27;103503.94;;;20.73;40.19
68366;BME280;55283;51.466;5.478;2023-02-13T11:28:09;103499.53;;;20.72;39.95
68366;BME280;55283;51.466;5.478;2023-02-13T11:30:38;103493.94;;;20.72;40.05
68366;BME280;55283;51.466;5.478;2023-02-13T11:33:13;103494.34;;;20.74;39.98
68366;BME280;55283;51.466;5.478;2023-02-13T11:35:46;103491.13;;;20.72;39.81
68366;BME280;55283;51.466;5.478;2023-02-13T11:40:42;103480.28;;;20.70;40.87
68366;BME280;55283;51.466;5.478;2023-02-13T11:43:32;103478.88;;;20.84;40.54
68366;BME280;55283;51.466;5.478;2023-02-13T11:46:23;103478.47;;;20.85;41.37
68366;BME280;55283;51.466;5.478;2023-02-13T11:49:02;103474.50;;;20.86;41.20
68366;BME280;55283;51.466;5.478;2023-02-13T11:54:04;103473.63;;;20.82;40.51
68366;BME280;55283;51.466;5.478;2023-02-13T11:56:46;103468.47;;;20.84;39.85
68366;BME280;55283;51.466;5.478;2023-02-13T11:59:12;103467.25;;;20.85;40.03
68366;BME280;55283;51.466;5.478;2023-02-13T12:01:38;103459.56;;;20.78;39.77
68366;BME280;55283;51.466;5.478;2023-02-13T12:04:17;103449.59;;;20.81;39.62
68366;BME280;55283;51.466;5.478;2023-02-13T12:07:03;103471.72;;;20.90;39.77
68366;BME280;55283;51.466;5.478;2023-02-13T12:09:30;103461.66;;;20.85;39.29
68366;BME280;55283;51.466;5.478;2023-02-13T12:11:59;103444.44;;;20.83;39.68
68366;BME280;55283;51.466;5.478;2023-02-13T12:14:32;103453.69;;;20.87;39.66
68366;BME280;55283;51.466;5.478;2023-02-13T12:17:04;103459.31;;;20.91;39.45
68366;BME280;55283;51.466;5.478;2023-02-13T12:19:38;103453.34;;;20.92;39.41
68366;BME280;55283;51.466;5.478;2023-02-13T12:47:17;103422.50;;;20.92;39.48
68366;BME280;55283;51.466;5.478;2023-02-13T13:12:50;103413.06;;;21.08;39.65
68366;BME280;55283;51.466;5.478;2023-02-13T13:23:57;103387.00;;;21.07;39.54
68366;BME280;55283;51.466;5.478;2023-02-13T13:26:44;103400.28;;;21.14;39.54
68366;BME280;55283;51.466;5.478;2023-02-13T13:29:26;103384.59;;;21.09;39.37
68366;BME280;55283;51.466;5.478;2023-02-13T13:32:00;103389.03;;;21.10;39.60
68366;BME280;55283;51.466;5.478;2023-02-13T13:34:28;103368.53;;;21.02;39.55
68366;BME280;55283;51.466;5.478;2023-02-13T13:43:27;103372.59;;;21.09;39.56
68366;BME280;55283;51.466;5.478;2023-02-13T13:48:54;103371.34;;;21.06;39.69
68366;BME280;55283;51.466;5.478;2023-02-13T13:51:21;103365.34;;;21.04;39.62
68366;BME280;55283;51.466;5.478;2023-02-13T14:07:37;103356.88;;;21.00;39.66
68366;BME280;55283;51.466;5.478;2023-02-13T14:10:14;103369.31;;;21.03;39.60
68366;BME280;55283;51.466;5.478;2023-02-13T14:15:49;103358.53;;;21.05;39.84
68366;BME280;55283;51.466;5.478;2023-02-13T14:20:42;103340.41;;;20.95;39.74
68366;BME280;55283;51.466;5.478;2023-02-13T14:28:55;103346.03;;;20.95;39.90
68366;BME280;55283;51.466;5.478;2023-02-13T14:31:30;103331.91;;;20.88;39.68
68366;BME280;55283;51.466;5.478;2023-02-13T14:34:17;103340.41;;;20.95;39.84
68366;BME280;55283;51.466;5.478;2023-02-13T14:36:45;103342.03;;;20.96;39.60
68366;BME280;55283;51.466;5.478;2023-02-13T14:47:22;103329.09;;;20.85;39.70
68366;BME280;55283;51.466;5.478;2023-02-13T14:49:50;103338.78;;;20.94;39.71
68366;BME280;55283;51.466;5.478;2023-02-13T14:52:21;103338.78;;;20.94;39.61
68366;BME280;55283;51.466;5.478;2023-02-13T14:55:06;103336.34;;;20.89;39.72
68366;BME280;55283;51.466;5.478;2023-02-13T14:57:42;103333.56;;;20.89;39.71
68366;BME280;55283;51.466;5.478;2023-02-13T15:00:30;103329.88;;;20.85;39.62
68366;BME280;55283;51.466;5.478;2023-02-13T15:03:12;103327.09;;;20.85;39.74
68366;BME280;55283;51.466;5.478;2023-02-13T15:05:50;103330.66;;;20.82;39.67
68366;BME280;55283;51.466;5.478;2023-02-13T15:08:20;103324.22;;;20.78;39.82
68366;BME280;55283;51.466;5.478;2023-02-13T15:10:50;103323.41;;;20.77;39.86
68366;BME280;55283;51.466;5.478;2023-02-13T15:15:54;103325.00;;;20.75;39.94
68366;BME280;55283;51.466;5.478;2023-02-13T15:18:29;103322.53;;;20.70;39.97
68366;BME280;55283;51.466;5.478;2023-02-13T15:20:57;103305.22;;;20.61;39.99
68366;BME280;55283;51.466;5.478;2023-02-13T15:23:32;103315.31;;;20.69;39.96
68366;BME280;55283;51.466;5.478;2023-02-13T15:26:03;103315.72;;;20.71;39.80
68366;BME280;55283;51.466;5.478;2023-02-13T15:28:30;103308.13;;;20.71;39.85
68366;BME280;55283;51.466;5.478;2023-02-13T15:30:57;103314.91;;;20.70;39.92
68366;BME280;55283;51.466;5.478;2023-02-13T15:33:32;103306.44;;;20.63;39.67
68366;BME280;55283;51.466;5.478;2023-02-13T15:36:00;103293.59;;;20.62;39.98
68366;BME280;55283;51.466;5.478;2023-02-13T15:38:33;103309.75;;;20.72;39.91
68366;BME280;55283;51.466;5.478;2023-02-13T15:41:02;103309.75;;;20.72;39.82
68366;BME280;55283;51.466;5.478;2023-02-13T15:43:41;103307.25;;;20.64;39.12
68366;BME280;55283;51.466;5.478;2023-02-13T15:48:44;103308.81;;;20.61;38.09
68366;BME280;55283;51.466;5.478;2023-02-13T15:51:18;103298.75;;;20.56;38.83
68366;BME280;55283;51.466;5.478;2023-02-13T15:54:01;103299.97;;;20.59;38.88
68366;BME280;55283;51.466;5.478;2023-02-13T15:56:28;103301.97;;;20.58;38.62
68366;BME280;55283;51.466;5.478;2023-02-13T15:58:55;103301.84;;;20.48;39.09
68366;BME280;55283;51.466;5.478;2023-02-13T16:01:22;103298.25;;;20.47;39.19
68366;BME280;55283;51.466;5.478;2023-02-13T16:03:51;103299.91;;;20.52;39.38
68366;BME280;55283;51.466;5.478;2023-02-13T16:06:19;103291.50;;;20.52;39.36
68366;BME280;55283;51.466;5.478;2023-02-13T16:08:53;103289.84;;;20.47;39.26